sensor_id;sensor_type;location;lat;lon;timestamp;P1;durP1;ratioP1;P2;durP2;ratioP2
2848;SDS011;59355;52.416;13.412;2022-11-20T00:01:04;20.70;;;15.83;;
2848;SDS011;59355;52.416;13.412;2022-11-20T00:03:34;18.37;;;15.07;;
2848;SDS011;59355;52.416;13.412;2022-11-20T00:06:00;20.50;;;15.87;;
2848;SDS011;59355;52.416;13.412;2022-11-20T00:08:26;20.70;;;16.50;;
2848;SDS011;59355;52.416;13.412;2022-11-20T00:10:52;19.60;;;16.10;;
2848;SDS011;59355;52.416;13.412;2022-11-20T00:13:17;23.77;;;16.97;;
2848;SDS011;59355;52.416;13.412;2022-11-20T00:15:42;18.40;;;15.77;;
2848;SDS011;59355;52.416;13.412;2022-11-20T00:18:08;21.57;;;17.47;;
2848;SDS011;59355;52.416;13.412;2022-11-20T00:20:33;21.77;;;17.53;;
2848;SDS011;59355;52.416;13.412;2022-11-20T00:22:58;25.40;;;17.00;;
2848;SDS011;59355;52.416;13.412;2022-11-20T00:25:24;21.73;;;15.97;;
2848;SDS011;59355;52.416;13.412;2022-11-20T00:27:49;23.03;;;15.63;;
2848;SDS011;59355;52.416;13.412;2022-11-20T00:30:15;17.60;;;14.20;;
2848;SDS011;59355;52.416;13.412;2022-11-20T00:32:40;22.37;;;16.30;;
2848;SDS011;59355;52.416;13.412;2022-11-20T00:35:06;17.30;;;14.77;;
2848;SDS011;59355;52.416;13.412;2022-11-20T00:37:31;19.80;;;14.50;;
2848;SDS011;59355;52.416;13.412;2022-11-20T00:39:56;21.97;;;14.87;;
2848;SDS011;59355;52.416;13.412;2022-11-20T00:42:22;20.17;;;15.50;;
2848;SDS011;59355;52.416;13.412;2022-11-20T00:44:47;18.60;;;14.60;;
2848;SDS011;59355;52.416;13.412;2022-11-20T00:47:12;20.57;;;15.80;;
2848;SDS011;59355;52.416;13.412;2022-11-20T00:49:38;20.00;;;17.10;;
2848;SDS011;59355;52.416;13.412;2022-11-20T00:52:03;20.70;;;16.37;;
2848;SDS011;59355;52.416;13.412;2022-11-20T00:54:28;19.83;;;16.07;;
2848;SDS011;59355;52.416;13.412;2022-11-20T00:56:54;23.83;;;17.50;;
2848;SDS011;59355;52.416;13.412;2022-11-20T00:59:19;19.97;;;15.60;;
2848;SDS011;59355;52.416;13.412;2022-11-20T01:01:44;21.63;;;16.90;;
2848;SDS011;59355;52.416;13.412;2022-11-20T01:04:09;23.57;;;17.17;;
2848;SDS011;59355;52.416;13.412;2022-11-20T01:06:36;21.60;;;16.33;;
2848;SDS011;59355;52.416;13.412;2022-11-20T01:09:05;21.77;;;15.77;;
2848;SDS011;59355;52.416;13.412;2022-11-20T01:11:33;20.57;;;16.60;;
2848;SDS011;59355;52.416;13.412;2022-11-20T01:14:01;19.87;;;16.17;;
2848;SDS011;59355;52.416;13.412;2022-11-20T01:16:32;20.63;;;16.00;;
2848;SDS011;59355;52.416;13.412;2022-11-20T01:19:06;19.07;;;15.60;;
2848;SDS011;59355;52.416;13.412;2022-11-20T01:21:35;23.50;;;17.30;;
2848;SDS011;59355;52.416;13.412;2022-11-20T01:24:02;22.83;;;15.77;;
2848;SDS011;59355;52.416;13.412;2022-11-20T01:26:29;22.30;;;16.33;;
2848;SDS011;59355;52.416;13.412;2022-11-20T01:28:56;22.37;;;16.07;;
2848;SDS011;59355;52.416;13.412;2022-11-20T01:31:22;19.87;;;15.57;;
2848;SDS011;59355;52.416;13.412;2022-11-20T01:33:50;24.17;;;18.37;;
2848;SDS011;59355;52.416;13.412;2022-11-20T01:36:16;22.83;;;16.83;;
2848;SDS011;59355;52.416;13.412;2022-11-20T01:38:43;20.33;;;15.13;;
2848;SDS011;59355;52.416;13.412;2022-11-20T01:41:09;21.13;;;15.20;;
2848;SDS011;59355;52.416;13.412;2022-11-20T01:43:35;24.83;;;18.00;;
2848;SDS011;59355;52.416;13.412;2022-11-20T01:48:38;23.27;;;16.10;;
2848;SDS011;59355;52.416;13.412;2022-11-20T01:51:19;19.33;;;16.00;;
2848;SDS011;59355;52.416;13.412;2022-11-20T01:53:50;19.43;;;15.77;;
2848;SDS011;59355;52.416;13.412;2022-11-20T01:56:17;27.03;;;19.43;;
2848;SDS011;59355;52.416;13.412;2022-11-20T01:58:44;22.20;;;16.90;;
2848;SDS011;59355;52.416;13.412;2022-11-20T02:01:13;20.23;;;16.13;;
2848;SDS011;59355;52.416;13.412;2022-11-20T02:03:39;20.20;;;15.40;;
2848;SDS011;59355;52.416;13.412;2022-11-20T02:06:19;21.03;;;15.67;;
2848;SDS011;59355;52.416;13.412;2022-11-20T02:08:46;23.77;;;18.07;;
2848;SDS011;59355;52.416;13.412;2022-11-20T02:11:11;20.57;;;16.63;;
2848;SDS011;59355;52.416;13.412;2022-11-20T02:13:37;19.30;;;14.93;;
2848;SDS011;59355;52.416;13.412;2022-11-20T02:16:16;23.13;;;16.37;;
2848;SDS011;59355;52.416;13.412;2022-11-20T02:18:53;22.30;;;17.70;;
2848;SDS011;59355;52.416;13.412;2022-11-20T02:24:22;20.30;;;16.13;;
2848;SDS011;59355;52.416;13.412;2022-11-20T02:26:52;21.40;;;16.07;;
2848;SDS011;59355;52.416;13.412;2022-11-20T02:29:23;24.03;;;15.87;;
2848;SDS011;59355;52.416;13.412;2022-11-20T02:31:51;21.80;;;16.00;;
2848;SDS011;59355;52.416;13.412;2022-11-20T02:34:16;19.00;;;15.47;;
2848;SDS011;59355;52.416;13.412;2022-11-20T02:36:41;25.13;;;17.67;;
2848;SDS011;59355;52.416;13.412;2022-11-20T02:39:07;22.07;;;17.67;;
2848;SDS011;59355;52.416;13.412;2022-11-20T02:41:36;23.47;;;16.77;;
2848;SDS011;59355;52.416;13.412;2022-11-20T02:44:03;23.10;;;15.73;;
2848;SDS011;59355;52.416;13.412;2022-11-20T02:46:28;22.07;;;16.80;;
2848;SDS011;59355;52.416;13.412;2022-11-20T02:48:54;21.90;;;15.67;;
2848;SDS011;59355;52.416;13.412;2022-11-20T02:51:19;22.87;;;17.10;;
2848;SDS011;59355;52.416;13.412;2022-11-20T02:53:44;22.80;;;16.87;;
2848;SDS011;59355;52.416;13.412;2022-11-20T02:56:10;21.07;;;16.33;;
2848;SDS011;59355;52.416;13.412;2022-11-20T02:58:35;19.97;;;15.07;;
2848;SDS011;59355;52.416;13.412;2022-11-20T03:01:00;20.93;;;14.73;;
2848;SDS011;59355;52.416;13.412;2022-11-20T03:03:26;22.17;;;15.70;;
2848;SDS011;59355;52.416;13.412;2022-11-20T03:05:51;22.53;;;17.07;;
2848;SDS011;59355;52.416;13.412;2022-11-20T03:08:17;20.60;;;15.30;;
2848;SDS011;59355;52.416;13.412;2022-11-20T03:10:42;19.37;;;15.27;;
2848;SDS011;59355;52.416;13.412;2022-11-20T03:13:07;21.73;;;15.70;;
2848;SDS011;59355;52.416;13.412;2022-11-20T03:15:33;21.17;;;15.60;;
2848;SDS011;59355;52.416;13.412;2022-11-20T03:17:58;23.33;;;17.33;;
2848;SDS011;59355;52.416;13.412;2022-11-20T03:20:23;18.17;;;15.13;;
2848;SDS011;59355;52.416;13.412;2022-11-20T03:22:49;22.43;;;15.37;;
2848;SDS011;59355;52.416;13.412;2022-11-20T03:25:14;20.60;;;14.80;;
2848;SDS011;59355;52.416;13.412;2022-11-20T03:27:40;19.17;;;15.70;;
2848;SDS011;59355;52.416;13.412;2022-11-20T03:30:05;23.47;;;16.27;;
2848;SDS011;59355;52.416;13.412;2022-11-20T03:32:31;23.37;;;16.97;;
2848;SDS011;59355;52.416;13.412;2022-11-20T03:34:56;21.83;;;18.10;;
2848;SDS011;59355;52.416;13.412;2022-11-20T03:37:21;20.37;;;16.13;;
2848;SDS011;59355;52.416;13.412;2022-11-20T03:39:47;19.07;;;15.67;;
2848;SDS011;59355;52.416;13.412;2022-11-20T03:42:12;21.33;;;15.43;;
2848;SDS011;59355;52.416;13.412;2022-11-20T03:44:56;21.00;;;17.20;;
2848;SDS011;59355;52.416;13.412;2022-11-20T03:47:21;20.17;;;15.90;;
2848;SDS011;59355;52.416;13.412;2022-11-20T03:49:47;20.50;;;15.97;;
2848;SDS011;59355;52.416;13.412;2022-11-20T03:52:12;23.90;;;17.27;;
2848;SDS011;59355;52.416;13.412;2022-11-20T03:54:37;22.90;;;17.17;;
2848;SDS011;59355;52.416;13.412;2022-11-20T03:57:03;20.87;;;17.37;;
2848;SDS011;59355;52.416;13.412;2022-11-20T03:59:28;23.60;;;18.07;;
2848;SDS011;59355;52.416;13.412;2022-11-20T04:01:53;24.57;;;18.40;;
2848;SDS011;59355;52.416;13.412;2022-11-20T04:04:19;22.40;;;15.87;;
2848;SDS011;59355;52.416;13.412;2022-11-20T04:06:44;26.73;;;18.40;;
2848;SDS011;59355;52.416;13.412;2022-11-20T04:09:09;22.27;;;18.00;;
2848;SDS011;59355;52.416;13.412;2022-11-20T04:11:35;21.97;;;17.27;;
2848;SDS011;59355;52.416;13.412;2022-11-20T04:14:03;21.33;;;16.70;;
2848;SDS011;59355;52.416;13.412;2022-11-20T04:16:31;25.53;;;17.30;;
2848;SDS011;59355;52.416;13.412;2022-11-20T04:18:59;25.53;;;17.70;;
2848;SDS011;59355;52.416;13.412;2022-11-20T04:21:25;23.80;;;17.47;;
2848;SDS011;59355;52.416;13.412;2022-11-20T04:23:51;21.13;;;17.30;;
2848;SDS011;59355;52.416;13.412;2022-11-20T04:26:17;24.40;;;18.17;;
2848;SDS011;59355;52.416;13.412;2022-11-20T04:28:43;26.83;;;19.17;;
2848;SDS011;59355;52.416;13.412;2022-11-20T04:31:10;21.93;;;18.00;;
2848;SDS011;59355;52.416;13.412;2022-11-20T04:33:40;26.73;;;19.10;;
2848;SDS011;59355;52.416;13.412;2022-11-20T04:36:07;19.87;;;16.40;;
2848;SDS011;59355;52.416;13.412;2022-11-20T04:38:35;18.60;;;16.57;;
2848;SDS011;59355;52.416;13.412;2022-11-20T04:41:01;21.70;;;16.30;;
2848;SDS011;59355;52.416;13.412;2022-11-20T04:43:27;20.90;;;16.53;;
2848;SDS011;59355;52.416;13.412;2022-11-20T04:45:53;20.90;;;15.77;;
2848;SDS011;59355;52.416;13.412;2022-11-20T04:48:19;20.50;;;16.60;;
2848;SDS011;59355;52.416;13.412;2022-11-20T04:50:44;21.43;;;17.67;;
2848;SDS011;59355;52.416;13.412;2022-11-20T04:53:10;21.47;;;17.03;;
2848;SDS011;59355;52.416;13.412;2022-11-20T04:55:35;21.60;;;16.93;;
2848;SDS011;59355;52.416;13.412;2022-11-20T04:58:00;22.03;;;17.00;;
2848;SDS011;59355;52.416;13.412;2022-11-20T05:00:25;21.10;;;17.50;;
2848;SDS011;59355;52.416;13.412;2022-11-20T05:02:51;22.73;;;17.27;;
2848;SDS011;59355;52.416;13.412;2022-11-20T05:05:16;24.90;;;17.90;;
2848;SDS011;59355;52.416;13.412;2022-11-20T05:07:41;20.87;;;16.23;;
2848;SDS011;59355;52.416;13.412;2022-11-20T05:10:07;20.83;;;15.73;;
2848;SDS011;59355;52.416;13.412;2022-11-20T05:12:32;19.77;;;16.83;;
2848;SDS011;59355;52.416;13.412;2022-11-20T05:14:58;24.33;;;17.40;;
2848;SDS011;59355;52.416;13.412;2022-11-20T05:17:23;21.47;;;17.30;;
2848;SDS011;59355;52.416;13.412;2022-11-20T05:19:48;21.93;;;16.20;;
2848;SDS011;59355;52.416;13.412;2022-11-20T05:22:14;25.40;;;18.30;;
2848;SDS011;59355;52.416;13.412;2022-11-20T05:24:39;22.80;;;16.40;;
2848;SDS011;59355;52.416;13.412;2022-11-20T05:27:04;23.90;;;18.00;;
2848;SDS011;59355;52.416;13.412;2022-11-20T05:29:30;24.33;;;18.23;;
2848;SDS011;59355;52.416;13.412;2022-11-20T05:31:55;24.07;;;17.80;;
2848;SDS011;59355;52.416;13.412;2022-11-20T05:34:20;27.50;;;19.00;;
2848;SDS011;59355;52.416;13.412;2022-11-20T05:36:46;22.47;;;16.30;;
2848;SDS011;59355;52.416;13.412;2022-11-20T05:39:11;20.13;;;16.70;;
2848;SDS011;59355;52.416;13.412;2022-11-20T05:41:36;25.20;;;18.67;;
2848;SDS011;59355;52.416;13.412;2022-11-20T05:44:01;23.23;;;16.87;;
2848;SDS011;59355;52.416;13.412;2022-11-20T05:46:27;25.23;;;17.90;;
2848;SDS011;59355;52.416;13.412;2022-11-20T05:48:52;25.93;;;17.53;;
2848;SDS011;59355;52.416;13.412;2022-11-20T05:51:18;26.13;;;20.17;;
2848;SDS011;59355;52.416;13.412;2022-11-20T05:53:44;19.53;;;17.37;;
2848;SDS011;59355;52.416;13.412;2022-11-20T05:56:10;23.53;;;18.00;;
2848;SDS011;59355;52.416;13.412;2022-11-20T05:58:37;24.03;;;18.00;;
2848;SDS011;59355;52.416;13.412;2022-11-20T06:01:06;25.30;;;18.77;;
2848;SDS011;59355;52.416;13.412;2022-11-20T06:03:43;22.40;;;17.50;;
2848;SDS011;59355;52.416;13.412;2022-11-20T06:06:11;24.30;;;18.30;;
2848;SDS011;59355;52.416;13.412;2022-11-20T06:08:36;20.80;;;15.80;;
2848;SDS011;59355;52.416;13.412;2022-11-20T06:11:05;24.63;;;18.23;;
2848;SDS011;59355;52.416;13.412;2022-11-20T06:13:32;23.00;;;17.97;;
2848;SDS011;59355;52.416;13.412;2022-11-20T06:15:57;21.20;;;16.97;;
2848;SDS011;59355;52.416;13.412;2022-11-20T06:18:23;22.40;;;17.20;;
2848;SDS011;59355;52.416;13.412;2022-11-20T06:20:48;20.87;;;17.87;;
2848;SDS011;59355;52.416;13.412;2022-11-20T06:23:13;26.70;;;17.10;;
2848;SDS011;59355;52.416;13.412;2022-11-20T06:25:42;25.93;;;18.80;;
2848;SDS011;59355;52.416;13.412;2022-11-20T06:28:08;25.73;;;17.87;;
2848;SDS011;59355;52.416;13.412;2022-11-20T06:30:33;22.10;;;17.90;;
2848;SDS011;59355;52.416;13.412;2022-11-20T06:32:59;28.73;;;18.50;;
2848;SDS011;59355;52.416;13.412;2022-11-20T06:35:24;23.10;;;18.57;;
2848;SDS011;59355;52.416;13.412;2022-11-20T06:37:50;25.50;;;19.50;;
2848;SDS011;59355;52.416;13.412;2022-11-20T06:40:15;21.50;;;17.10;;
2848;SDS011;59355;52.416;13.412;2022-11-20T06:42:40;28.03;;;19.70;;
2848;SDS011;59355;52.416;13.412;2022-11-20T06:45:06;22.40;;;18.00;;
2848;SDS011;59355;52.416;13.412;2022-11-20T06:47:32;24.53;;;18.90;;
2848;SDS011;59355;52.416;13.412;2022-11-20T06:49:58;24.77;;;18.43;;
2848;SDS011;59355;52.416;13.412;2022-11-20T06:52:23;23.67;;;18.00;;
2848;SDS011;59355;52.416;13.412;2022-11-20T06:54:48;21.13;;;16.80;;
2848;SDS011;59355;52.416;13.412;2022-11-20T06:57:14;22.70;;;17.17;;
2848;SDS011;59355;52.416;13.412;2022-11-20T06:59:39;26.60;;;18.53;;
2848;SDS011;59355;52.416;13.412;2022-11-20T07:02:04;22.60;;;15.83;;
2848;SDS011;59355;52.416;13.412;2022-11-20T07:04:30;21.27;;;17.70;;
2848;SDS011;59355;52.416;13.412;2022-11-20T07:06:55;23.73;;;17.90;;
2848;SDS011;59355;52.416;13.412;2022-11-20T07:09:20;21.80;;;17.37;;
2848;SDS011;59355;52.416;13.412;2022-11-20T07:11:45;22.23;;;17.20;;
2848;SDS011;59355;52.416;13.412;2022-11-20T07:14:11;23.40;;;17.70;;
2848;SDS011;59355;52.416;13.412;2022-11-20T07:16:36;24.40;;;18.73;;
2848;SDS011;59355;52.416;13.412;2022-11-20T07:19:01;22.20;;;18.30;;
2848;SDS011;59355;52.416;13.412;2022-11-20T07:21:27;22.43;;;16.40;;
2848;SDS011;59355;52.416;13.412;2022-11-20T07:23:52;20.27;;;16.17;;
2848;SDS011;59355;52.416;13.412;2022-11-20T07:26:17;23.70;;;18.33;;
2848;SDS011;59355;52.416;13.412;2022-11-20T07:28:44;22.93;;;18.93;;
2848;SDS011;59355;52.416;13.412;2022-11-20T07:31:10;23.00;;;16.80;;
2848;SDS011;59355;52.416;13.412;2022-11-20T07:33:36;25.80;;;18.37;;
2848;SDS011;59355;52.416;13.412;2022-11-20T07:36:02;26.63;;;18.80;;
2848;SDS011;59355;52.416;13.412;2022-11-20T07:38:27;21.53;;;17.13;;
2848;SDS011;59355;52.416;13.412;2022-11-20T07:40:53;22.73;;;17.30;;
2848;SDS011;59355;52.416;13.412;2022-11-20T07:43:20;24.87;;;17.80;;
2848;SDS011;59355;52.416;13.412;2022-11-20T07:45:45;27.60;;;17.60;;
2848;SDS011;59355;52.416;13.412;2022-11-20T07:48:11;22.60;;;16.87;;
2848;SDS011;59355;52.416;13.412;2022-11-20T07:50:36;26.70;;;17.97;;
2848;SDS011;59355;52.416;13.412;2022-11-20T07:53:02;21.93;;;16.70;;
2848;SDS011;59355;52.416;13.412;2022-11-20T07:55:29;24.40;;;19.97;;
2848;SDS011;59355;52.416;13.412;2022-11-20T07:57:55;19.73;;;16.97;;
2848;SDS011;59355;52.416;13.412;2022-11-20T08:00:21;23.03;;;18.20;;
2848;SDS011;59355;52.416;13.412;2022-11-20T08:02:46;23.60;;;17.87;;
2848;SDS011;59355;52.416;13.412;2022-11-20T08:05:11;25.73;;;18.70;;
2848;SDS011;59355;52.416;13.412;2022-11-20T08:07:37;27.07;;;19.80;;
2848;SDS011;59355;52.416;13.412;2022-11-20T08:10:03;25.37;;;18.10;;
2848;SDS011;59355;52.416;13.412;2022-11-20T08:12:29;25.90;;;19.93;;
2848;SDS011;59355;52.416;13.412;2022-11-20T08:15:13;24.40;;;20.00;;
2848;SDS011;59355;52.416;13.412;2022-11-20T08:17:38;25.20;;;18.80;;
2848;SDS011;59355;52.416;13.412;2022-11-20T08:20:03;24.70;;;18.17;;
2848;SDS011;59355;52.416;13.412;2022-11-20T08:22:29;23.03;;;18.60;;
2848;SDS011;59355;52.416;13.412;2022-11-20T08:24:54;23.77;;;19.23;;
2848;SDS011;59355;52.416;13.412;2022-11-20T08:27:19;24.50;;;19.47;;
2848;SDS011;59355;52.416;13.412;2022-11-20T08:29:45;26.67;;;20.37;;
2848;SDS011;59355;52.416;13.412;2022-11-20T08:32:10;25.03;;;19.20;;
2848;SDS011;59355;52.416;13.412;2022-11-20T08:34:35;23.83;;;18.67;;
2848;SDS011;59355;52.416;13.412;2022-11-20T08:37:01;24.53;;;19.77;;
2848;SDS011;59355;52.416;13.412;2022-11-20T08:39:27;28.27;;;21.23;;
2848;SDS011;59355;52.416;13.412;2022-11-20T08:41:52;25.27;;;19.77;;
2848;SDS011;59355;52.416;13.412;2022-11-20T08:44:18;27.17;;;19.90;;
2848;SDS011;59355;52.416;13.412;2022-11-20T08:46:43;23.33;;;18.17;;
2848;SDS011;59355;52.416;13.412;2022-11-20T08:49:09;26.13;;;19.60;;
2848;SDS011;59355;52.416;13.412;2022-11-20T08:51:36;27.17;;;18.87;;
2848;SDS011;59355;52.416;13.412;2022-11-20T08:54:01;23.90;;;19.47;;
2848;SDS011;59355;52.416;13.412;2022-11-20T08:56:27;25.40;;;19.77;;
2848;SDS011;59355;52.416;13.412;2022-11-20T08:58:52;25.13;;;20.23;;
2848;SDS011;59355;52.416;13.412;2022-11-20T09:01:18;22.83;;;18.40;;
2848;SDS011;59355;52.416;13.412;2022-11-20T09:03:44;24.40;;;19.87;;
2848;SDS011;59355;52.416;13.412;2022-11-20T09:06:10;27.73;;;19.60;;
2848;SDS011;59355;52.416;13.412;2022-11-20T09:08:35;22.70;;;19.80;;
2848;SDS011;59355;52.416;13.412;2022-11-20T09:11:01;24.80;;;19.43;;
2848;SDS011;59355;52.416;13.412;2022-11-20T09:13:27;22.60;;;19.00;;
2848;SDS011;59355;52.416;13.412;2022-11-20T09:15:53;25.20;;;19.87;;
2848;SDS011;59355;52.416;13.412;2022-11-20T09:18:19;23.07;;;19.97;;
2848;SDS011;59355;52.416;13.412;2022-11-20T09:20:44;25.30;;;18.87;;
2848;SDS011;59355;52.416;13.412;2022-11-20T09:23:10;22.30;;;18.27;;
2848;SDS011;59355;52.416;13.412;2022-11-20T09:25:35;25.23;;;19.63;;
2848;SDS011;59355;52.416;13.412;2022-11-20T09:28:00;25.43;;;20.70;;
2848;SDS011;59355;52.416;13.412;2022-11-20T09:30:26;24.47;;;19.50;;
2848;SDS011;59355;52.416;13.412;2022-11-20T09:32:51;23.30;;;19.00;;
2848;SDS011;59355;52.416;13.412;2022-11-20T09:35:17;27.27;;;20.10;;
2848;SDS011;59355;52.416;13.412;2022-11-20T09:37:42;24.60;;;18.93;;
2848;SDS011;59355;52.416;13.412;2022-11-20T09:40:16;22.17;;;17.30;;
2848;SDS011;59355;52.416;13.412;2022-11-20T09:43:01;23.63;;;18.53;;
2848;SDS011;59355;52.416;13.412;2022-11-20T09:45:44;24.97;;;18.27;;
2848;SDS011;59355;52.416;13.412;2022-11-20T09:51:04;23.63;;;18.70;;
2848;SDS011;59355;52.416;13.412;2022-11-20T09:56:26;23.30;;;17.23;;
2848;SDS011;59355;52.416;13.412;2022-11-20T09:58:51;23.67;;;19.30;;
2848;SDS011;59355;52.416;13.412;2022-11-20T10:03:54;25.67;;;19.27;;
2848;SDS011;59355;52.416;13.412;2022-11-20T10:06:24;23.10;;;18.40;;
2848;SDS011;59355;52.416;13.412;2022-11-20T10:14:48;28.90;;;19.60;;
2848;SDS011;59355;52.416;13.412;2022-11-20T10:20:35;27.33;;;20.30;;
2848;SDS011;59355;52.416;13.412;2022-11-20T10:23:14;22.53;;;18.63;;
2848;SDS011;59355;52.416;13.412;2022-11-20T10:25:55;26.33;;;18.63;;
2848;SDS011;59355;52.416;13.412;2022-11-20T10:32:01;25.50;;;17.80;;
2848;SDS011;59355;52.416;13.412;2022-11-20T10:34:30;23.30;;;17.63;;
2848;SDS011;59355;52.416;13.412;2022-11-20T10:37:15;24.60;;;19.70;;
2848;SDS011;59355;52.416;13.412;2022-11-20T10:39:47;23.87;;;20.20;;
2848;SDS011;59355;52.416;13.412;2022-11-20T10:42:34;28.30;;;21.27;;
2848;SDS011;59355;52.416;13.412;2022-11-20T10:45:15;26.00;;;19.90;;
2848;SDS011;59355;52.416;13.412;2022-11-20T10:47:45;24.53;;;19.40;;
2848;SDS011;59355;52.416;13.412;2022-11-20T10:50:11;26.17;;;19.70;;
2848;SDS011;59355;52.416;13.412;2022-11-20T10:55:45;28.60;;;19.60;;
2848;SDS011;59355;52.416;13.412;2022-11-20T10:58:16;27.03;;;19.60;;
2848;SDS011;59355;52.416;13.412;2022-11-20T11:00:47;22.63;;;18.70;;
2848;SDS011;59355;52.416;13.412;2022-11-20T11:03:28;22.83;;;17.93;;
2848;SDS011;59355;52.416;13.412;2022-11-20T11:08:37;26.30;;;19.87;;
2848;SDS011;59355;52.416;13.412;2022-11-20T11:11:15;24.57;;;19.70;;
2848;SDS011;59355;52.416;13.412;2022-11-20T11:13:46;24.53;;;18.80;;
2848;SDS011;59355;52.416;13.412;2022-11-20T11:18:47;22.87;;;17.20;;
2848;SDS011;59355;52.416;13.412;2022-11-20T11:21:12;25.07;;;20.43;;
2848;SDS011;59355;52.416;13.412;2022-11-20T11:23:42;25.30;;;19.97;;
2848;SDS011;59355;52.416;13.412;2022-11-20T11:26:20;22.03;;;18.50;;
2848;SDS011;59355;52.416;13.412;2022-11-20T11:29:00;26.20;;;19.53;;
2848;SDS011;59355;52.416;13.412;2022-11-20T11:31:29;23.87;;;18.60;;
2848;SDS011;59355;52.416;13.412;2022-11-20T11:34:11;25.83;;;18.67;;
2848;SDS011;59355;52.416;13.412;2022-11-20T11:36:41;19.77;;;17.27;;
2848;SDS011;59355;52.416;13.412;2022-11-20T11:39:17;23.50;;;17.30;;
2848;SDS011;59355;52.416;13.412;2022-11-20T11:41:44;21.37;;;18.90;;
2848;SDS011;59355;52.416;13.412;2022-11-20T11:44:20;25.10;;;17.07;;
2848;SDS011;59355;52.416;13.412;2022-11-20T11:47:20;21.80;;;19.27;;
2848;SDS011;59355;52.416;13.412;2022-11-20T11:52:48;21.70;;;17.50;;
2848;SDS011;59355;52.416;13.412;2022-11-20T11:55:17;24.73;;;17.83;;
2848;SDS011;59355;52.416;13.412;2022-11-20T11:57:52;19.97;;;16.30;;
2848;SDS011;59355;52.416;13.412;2022-11-20T12:00:20;20.10;;;16.87;;
2848;SDS011;59355;52.416;13.412;2022-11-20T12:07:45;22.43;;;17.33;;
2848;SDS011;59355;52.416;13.412;2022-11-20T12:10:17;23.63;;;17.87;;
2848;SDS011;59355;52.416;13.412;2022-11-20T12:12:48;20.50;;;17.90;;
2848;SDS011;59355;52.416;13.412;2022-11-20T12:15:22;23.80;;;17.17;;
2848;SDS011;59355;52.416;13.412;2022-11-20T12:17:50;18.87;;;16.97;;
2848;SDS011;59355;52.416;13.412;2022-11-20T12:20:16;20.23;;;15.77;;
2848;SDS011;59355;52.416;13.412;2022-11-20T12:22:48;18.37;;;15.63;;
2848;SDS011;59355;52.416;13.412;2022-11-20T12:25:29;17.60;;;14.80;;
2848;SDS011;59355;52.416;13.412;2022-11-20T12:28:05;22.03;;;17.67;;
2848;SDS011;59355;52.416;13.412;2022-11-20T12:30:39;21.40;;;14.03;;
2848;SDS011;59355;52.416;13.412;2022-11-20T12:33:26;18.13;;;14.87;;
2848;SDS011;59355;52.416;13.412;2022-11-20T12:41:43;15.43;;;11.23;;
2848;SDS011;59355;52.416;13.412;2022-11-20T12:44:44;19.80;;;11.33;;
2848;SDS011;59355;52.416;13.412;2022-11-20T12:50:05;17.37;;;10.40;;
2848;SDS011;59355;52.416;13.412;2022-11-20T12:55:41;14.47;;;11.87;;
2848;SDS011;59355;52.416;13.412;2022-11-20T13:01:20;13.50;;;12.17;;
2848;SDS011;59355;52.416;13.412;2022-11-20T13:04:08;13.80;;;10.40;;
2848;SDS011;59355;52.416;13.412;2022-11-20T13:06:37;13.00;;;11.63;;
2848;SDS011;59355;52.416;13.412;2022-11-20T13:09:06;13.13;;;10.87;;
2848;SDS011;59355;52.416;13.412;2022-11-20T13:11:37;10.97;;;9.00;;
2848;SDS011;59355;52.416;13.412;2022-11-20T13:14:13;11.73;;;9.30;;
2848;SDS011;59355;52.416;13.412;2022-11-20T13:20:06;13.13;;;10.50;;
2848;SDS011;59355;52.416;13.412;2022-11-20T13:22:45;16.53;;;10.70;;
2848;SDS011;59355;52.416;13.412;2022-11-20T13:25:22;11.87;;;10.60;;
2848;SDS011;59355;52.416;13.412;2022-11-20T13:27:51;12.10;;;9.73;;
2848;SDS011;59355;52.416;13.412;2022-11-20T13:30:21;12.10;;;9.73;;
2848;SDS011;59355;52.416;13.412;2022-11-20T13:32:54;11.93;;;9.53;;
2848;SDS011;59355;52.416;13.412;2022-11-20T13:35:41;12.37;;;11.07;;
2848;SDS011;59355;52.416;13.412;2022-11-20T13:38:08;13.37;;;10.77;;
2848;SDS011;59355;52.416;13.412;2022-11-20T13:40:58;13.73;;;10.03;;
2848;SDS011;59355;52.416;13.412;2022-11-20T13:43:48;16.27;;;11.60;;
2848;SDS011;59355;52.416;13.412;2022-11-20T13:46:14;15.90;;;10.87;;
2848;SDS011;59355;52.416;13.412;2022-11-20T13:51:14;13.13;;;10.53;;
2848;SDS011;59355;52.416;13.412;2022-11-20T13:56:46;14.13;;;10.83;;
2848;SDS011;59355;52.416;13.412;2022-11-20T14:02:16;13.67;;;10.90;;
2848;SDS011;59355;52.416;13.412;2022-11-20T14:04:45;13.47;;;10.87;;
2848;SDS011;59355;52.416;13.412;2022-11-20T14:07:12;15.33;;;12.03;;
2848;SDS011;59355;52.416;13.412;2022-11-20T14:09:37;16.43;;;11.37;;
2848;SDS011;59355;52.416;13.412;2022-11-20T14:12:03;13.90;;;12.07;;
2848;SDS011;59355;52.416;13.412;2022-11-20T14:14:46;17.50;;;11.77;;
2848;SDS011;59355;52.416;13.412;2022-11-20T14:17:23;13.90;;;10.60;;
2848;SDS011;59355;52.416;13.412;2022-11-20T14:19:55;12.70;;;11.07;;
2848;SDS011;59355;52.416;13.412;2022-11-20T14:22:24;13.30;;;10.70;;
2848;SDS011;59355;52.416;13.412;2022-11-20T14:25:17;17.17;;;10.53;;
2848;SDS011;59355;52.416;13.412;2022-11-20T14:27:49;16.30;;;11.33;;
2848;SDS011;59355;52.416;13.412;2022-11-20T14:30:18;13.30;;;10.07;;
2848;SDS011;59355;52.416;13.412;2022-11-20T14:32:45;13.67;;;11.30;;
2848;SDS011;59355;52.416;13.412;2022-11-20T14:35:19;16.17;;;12.33;;
2848;SDS011;59355;52.416;13.412;2022-11-20T14:37:48;16.20;;;11.10;;
2848;SDS011;59355;52.416;13.412;2022-11-20T14:40:28;14.10;;;12.43;;
2848;SDS011;59355;52.416;13.412;2022-11-20T14:42:58;17.20;;;11.13;;
2848;SDS011;59355;52.416;13.412;2022-11-20T14:45:24;19.27;;;12.10;;
2848;SDS011;59355;52.416;13.412;2022-11-20T14:47:51;15.27;;;10.47;;
2848;SDS011;59355;52.416;13.412;2022-11-20T14:50:19;13.50;;;11.23;;
2848;SDS011;59355;52.416;13.412;2022-11-20T14:52:53;18.63;;;14.87;;
2848;SDS011;59355;52.416;13.412;2022-11-20T14:55:26;16.93;;;13.53;;
2848;SDS011;59355;52.416;13.412;2022-11-20T14:57:57;16.93;;;12.70;;
2848;SDS011;59355;52.416;13.412;2022-11-20T15:00:24;16.27;;;12.80;;
2848;SDS011;59355;52.416;13.412;2022-11-20T15:02:50;18.87;;;14.23;;
2848;SDS011;59355;52.416;13.412;2022-11-20T15:05:17;19.93;;;14.20;;
2848;SDS011;59355;52.416;13.412;2022-11-20T15:07:45;19.00;;;15.00;;
2848;SDS011;59355;52.416;13.412;2022-11-20T15:12:40;18.20;;;14.83;;
2848;SDS011;59355;52.416;13.412;2022-11-20T15:15:11;16.90;;;13.97;;
2848;SDS011;59355;52.416;13.412;2022-11-20T15:17:37;18.23;;;14.40;;
2848;SDS011;59355;52.416;13.412;2022-11-20T15:20:05;20.03;;;15.30;;
2848;SDS011;59355;52.416;13.412;2022-11-20T15:22:37;17.60;;;14.63;;
2848;SDS011;59355;52.416;13.412;2022-11-20T15:25:05;20.97;;;15.17;;
2848;SDS011;59355;52.416;13.412;2022-11-20T15:27:36;19.57;;;15.37;;
2848;SDS011;59355;52.416;13.412;2022-11-20T15:30:02;21.70;;;16.93;;
2848;SDS011;59355;52.416;13.412;2022-11-20T15:32:27;23.63;;;17.33;;
2848;SDS011;59355;52.416;13.412;2022-11-20T15:34:52;21.20;;;16.00;;
2848;SDS011;59355;52.416;13.412;2022-11-20T15:37:18;22.20;;;17.80;;
2848;SDS011;59355;52.416;13.412;2022-11-20T15:39:43;23.07;;;17.07;;